createdAt,value
2023-01-17T00:02:16.608Z,8.70
2023-01-17T00:05:03.906Z,6.20
2023-01-17T00:07:51.214Z,5.10
2023-01-17T00:10:22.070Z,5.50
2023-01-17T00:12:55.627Z,5.00
2023-01-17T00:15:24.289Z,4.90
2023-01-17T00:17:53.850Z,4.20
2023-01-17T00:20:46.074Z,4.80
2023-01-17T00:23:38.820Z,4.70
2023-01-17T00:26:12.025Z,4.70
2023-01-17T00:28:42.881Z,4.50
2023-01-17T00:31:12.375Z,4.50
2023-01-17T00:33:40.377Z,5.00
2023-01-17T00:36:09.161Z,4.70
2023-01-17T00:38:39.190Z,5.30
2023-01-17T00:41:10.072Z,5.20
2023-01-17T00:43:56.700Z,5.10
2023-01-17T00:46:43.437Z,5.00
2023-01-17T00:49:30.208Z,4.80
2023-01-17T00:52:16.668Z,5.10
2023-01-17T00:55:03.343Z,4.60
2023-01-17T00:57:49.649Z,4.90
2023-01-17T01:00:37.711Z,4.80
2023-01-17T01:03:29.434Z,5.70
2023-01-17T01:06:16.245Z,5.50
2023-01-17T01:09:03.165Z,5.30
2023-01-17T01:11:49.437Z,5.30
2023-01-17T01:14:35.993Z,5.90
2023-01-17T01:17:23.187Z,6.10
2023-01-17T01:20:09.701Z,5.10
2023-01-17T01:22:56.113Z,5.20
2023-01-17T01:25:42.587Z,5.00
2023-01-17T01:28:31.192Z,5.30
2023-01-17T01:31:18.971Z,5.80
2023-01-17T01:33:47.099Z,5.60
2023-01-17T01:36:15.590Z,5.70
2023-01-17T01:38:43.495Z,5.90
2023-01-17T01:41:11.856Z,6.30
2023-01-17T01:43:45.017Z,5.10
2023-01-17T01:46:25.760Z,5.70
2023-01-17T01:49:02.288Z,5.40
2023-01-17T01:51:35.367Z,5.60
2023-01-17T01:54:18.236Z,6.00
2023-01-17T01:56:48.317Z,5.50
2023-01-17T01:59:20.365Z,5.60
2023-01-17T02:01:51.800Z,5.10
2023-01-17T02:04:22.229Z,6.00
2023-01-17T02:06:56.331Z,5.20
2023-01-17T02:09:24.464Z,4.90
2023-01-17T02:11:52.803Z,4.90
2023-01-17T02:14:22.424Z,5.50
2023-01-17T02:16:58.147Z,5.00
2023-01-17T02:19:44.856Z,4.50
2023-01-17T02:22:34.955Z,3.90
2023-01-17T02:25:32.066Z,4.10
2023-01-17T02:28:19.899Z,3.70
2023-01-17T02:30:56.372Z,4.20
2023-01-17T02:33:33.733Z,4.10
2023-01-17T02:36:22.481Z,4.00
2023-01-17T02:39:02.834Z,4.20
2023-01-17T02:41:35.730Z,3.90
2023-01-17T02:44:04.273Z,4.60
2023-01-17T02:46:32.167Z,4.30
2023-01-17T02:49:00.669Z,4.20
2023-01-17T02:51:50.034Z,4.20
2023-01-17T02:54:36.185Z,4.20
2023-01-17T02:57:23.553Z,4.30
2023-01-17T03:00:00.606Z,4.30
2023-01-17T03:02:51.841Z,4.40
2023-01-17T03:05:44.565Z,4.00
2023-01-17T03:08:13.396Z,3.90
2023-01-17T03:10:42.562Z,3.90
2023-01-17T03:13:10.463Z,4.40
2023-01-17T03:15:40.113Z,4.30
2023-01-17T03:18:15.028Z,4.20
2023-01-17T03:20:43.180Z,4.50
2023-01-17T03:23:11.099Z,3.70
2023-01-17T03:25:38.985Z,4.00
2023-01-17T03:28:06.993Z,3.90
2023-01-17T03:30:34.963Z,4.10
2023-01-17T03:33:02.941Z,4.00
2023-01-17T03:35:30.960Z,4.00
2023-01-17T03:37:58.927Z,4.10
2023-01-17T03:40:27.089Z,4.40
2023-01-17T03:42:55.079Z,4.00
2023-01-17T03:45:23.024Z,3.80
2023-01-17T03:47:50.974Z,4.10
2023-01-17T03:50:18.869Z,3.70
2023-01-17T03:52:46.776Z,3.80
2023-01-17T03:55:14.801Z,4.30
2023-01-17T03:57:42.640Z,4.30
2023-01-17T04:00:11.271Z,4.20
2023-01-17T04:02:39.214Z,4.20
2023-01-17T04:05:08.227Z,4.20
2023-01-17T04:07:36.098Z,4.50
2023-01-17T04:10:04.589Z,3.60
2023-01-17T04:12:32.528Z,4.10
2023-01-17T04:15:00.442Z,4.20
2023-01-17T04:17:28.434Z,4.20
2023-01-17T04:19:56.359Z,4.10
2023-01-17T04:22:24.355Z,3.80
2023-01-17T04:24:52.304Z,3.90
2023-01-17T04:27:20.222Z,3.50
2023-01-17T04:29:48.095Z,3.70
2023-01-17T04:32:16.025Z,4.40
2023-01-17T04:34:44.019Z,3.90
2023-01-17T04:37:11.967Z,3.70
2023-01-17T04:39:40.050Z,4.30
2023-01-17T04:42:07.905Z,4.00
2023-01-17T04:44:35.807Z,3.60
2023-01-17T04:47:03.843Z,3.90
2023-01-17T04:49:31.761Z,3.80
2023-01-17T04:51:59.811Z,5.90
2023-01-17T04:54:27.729Z,3.80
2023-01-17T04:56:55.624Z,3.50
2023-01-17T04:59:23.555Z,3.60
2023-01-17T05:01:51.545Z,3.90
2023-01-17T05:04:19.573Z,3.50
2023-01-17T05:06:47.478Z,3.20
2023-01-17T05:09:15.333Z,3.30
2023-01-17T05:11:43.219Z,3.70
2023-01-17T05:14:11.304Z,3.10
2023-01-17T05:16:39.193Z,3.10
2023-01-17T05:19:07.064Z,2.90
2023-01-17T05:21:35.153Z,4.00
2023-01-17T05:24:03.580Z,3.20
2023-01-17T05:26:31.521Z,2.50
2023-01-17T05:28:59.382Z,2.90
2023-01-17T05:31:27.323Z,3.00
2023-01-17T05:33:55.263Z,3.10
2023-01-17T05:36:23.199Z,2.70
2023-01-17T05:38:51.074Z,2.40
2023-01-17T05:41:19.034Z,2.60
2023-01-17T05:43:46.939Z,2.60
2023-01-17T05:46:16.210Z,2.60
2023-01-17T05:48:44.174Z,2.80
2023-01-17T05:51:12.147Z,2.60
2023-01-17T05:53:40.027Z,2.30
2023-01-17T05:56:07.994Z,2.40
2023-01-17T05:58:35.907Z,2.90
2023-01-17T06:01:03.908Z,2.50
2023-01-17T06:03:32.006Z,2.70
2023-01-17T06:05:59.888Z,2.60
2023-01-17T06:08:27.880Z,2.70
2023-01-17T06:10:58.820Z,2.50
2023-01-17T06:13:26.741Z,2.60
2023-01-17T06:15:57.656Z,2.60
2023-01-17T06:18:25.806Z,3.20
2023-01-17T06:20:55.307Z,3.20
2023-01-17T06:23:24.523Z,4.50
2023-01-17T06:25:52.576Z,3.40
2023-01-17T06:28:22.734Z,3.30
2023-01-17T06:30:50.668Z,3.80
2023-01-17T06:33:18.962Z,3.10
2023-01-17T06:35:49.092Z,3.50
2023-01-17T06:38:17.725Z,3.30
2023-01-17T06:40:45.840Z,3.50
2023-01-17T06:43:13.865Z,3.20
2023-01-17T06:45:41.772Z,4.50
2023-01-17T06:48:09.790Z,4.20
2023-01-17T06:50:38.171Z,7.70
2023-01-17T06:53:07.234Z,5.30
2023-01-17T06:55:37.248Z,7.00
2023-01-17T06:58:05.203Z,6.40
2023-01-17T07:00:35.230Z,4.40
2023-01-17T07:03:03.407Z,4.50
2023-01-17T07:05:31.369Z,4.70
2023-01-17T07:07:59.355Z,4.20
2023-01-17T07:10:27.457Z,5.20
2023-01-17T07:13:00.737Z,5.10
2023-01-17T07:15:28.696Z,5.00
2023-01-17T07:17:56.546Z,5.30
2023-01-17T07:20:24.434Z,4.60
2023-01-17T07:22:52.381Z,5.30
2023-01-17T07:25:20.327Z,5.90
2023-01-17T07:27:48.600Z,4.90
2023-01-17T07:30:16.878Z,4.40
2023-01-17T07:32:44.759Z,4.70
2023-01-17T07:35:12.664Z,3.80
2023-01-17T07:37:40.663Z,5.40
2023-01-17T07:40:09.498Z,5.70
2023-01-17T07:42:37.566Z,5.00
2023-01-17T07:45:06.256Z,6.30
2023-01-17T07:47:34.171Z,5.30
2023-01-17T07:50:02.939Z,4.20
2023-01-17T07:52:31.382Z,3.20
2023-01-17T07:54:59.403Z,3.70
2023-01-17T07:57:27.380Z,5.70
2023-01-17T07:59:55.298Z,4.20
2023-01-17T08:02:23.736Z,3.70
2023-01-17T08:04:51.747Z,3.50
2023-01-17T08:07:19.641Z,3.00
2023-01-17T08:09:49.885Z,7.70
2023-01-17T08:12:18.109Z,3.00
2023-01-17T08:14:46.192Z,3.00
2023-01-17T08:17:16.403Z,3.00
2023-01-17T08:19:45.027Z,3.00
2023-01-17T08:22:13.014Z,3.20
2023-01-17T08:24:42.273Z,3.60
2023-01-17T08:27:10.426Z,2.90
2023-01-17T08:29:42.167Z,7.30
2023-01-17T08:32:10.079Z,4.10
2023-01-17T08:34:38.087Z,4.10
2023-01-17T08:37:06.100Z,3.70
2023-01-17T08:39:34.018Z,3.60
2023-01-17T08:42:01.987Z,3.00
2023-01-17T08:44:29.969Z,2.90
2023-01-17T08:46:57.967Z,3.30
2023-01-17T08:49:25.888Z,4.00
2023-01-17T08:51:53.929Z,3.70
2023-01-17T08:54:22.954Z,3.70
2023-01-17T08:56:52.854Z,3.80
2023-01-17T08:59:22.275Z,5.00
2023-01-17T09:01:52.529Z,4.50
2023-01-17T09:04:20.839Z,6.00
2023-01-17T09:06:48.847Z,5.90
2023-01-17T09:09:17.526Z,4.30
2023-01-17T09:11:45.536Z,4.30
2023-01-17T09:14:13.993Z,3.40
2023-01-17T09:16:41.867Z,3.50
2023-01-17T09:19:10.264Z,6.70
2023-01-17T09:21:38.159Z,5.40
2023-01-17T09:24:06.382Z,5.40
2023-01-17T09:26:35.621Z,4.20
2023-01-17T09:29:04.075Z,3.30
2023-01-17T09:31:32.109Z,2.90
2023-01-17T09:34:00.156Z,2.80
2023-01-17T09:36:28.984Z,2.50
2023-01-17T09:38:58.697Z,2.40
2023-01-17T09:41:30.210Z,3.90
2023-01-17T09:44:14.807Z,3.60
2023-01-17T09:46:46.263Z,2.30
2023-01-17T09:49:39.680Z,2.80
2023-01-17T09:52:11.922Z,1.90
2023-01-17T09:54:41.860Z,2.60
2023-01-17T09:57:16.059Z,2.60
2023-01-17T10:00:31.149Z,1.90
2023-01-17T10:03:16.437Z,1.90
2023-01-17T10:05:58.428Z,2.40
2023-01-17T10:08:34.119Z,4.00
2023-01-17T10:11:21.351Z,2.70
2023-01-17T10:14:08.313Z,3.80
2023-01-17T10:16:53.261Z,1.80
2023-01-17T10:19:28.486Z,6.00
2023-01-17T10:22:13.719Z,3.10
2023-01-17T10:25:17.806Z,2.90
2023-01-17T10:27:59.479Z,3.60
2023-01-17T10:30:32.738Z,4.00
2023-01-17T10:33:04.223Z,3.60
2023-01-17T10:35:37.438Z,3.60
2023-01-17T10:38:11.239Z,3.40
2023-01-17T10:43:30.189Z,3.90
2023-01-17T10:45:57.307Z,3.40
2023-01-17T10:48:43.657Z,3.30
2023-01-17T10:51:43.317Z,2.80
2023-01-17T10:54:36.305Z,3.50
2023-01-17T10:57:03.246Z,4.20
2023-01-17T10:59:36.490Z,3.90
2023-01-17T11:02:14.657Z,4.80
2023-01-17T11:04:41.851Z,3.50
2023-01-17T11:07:15.934Z,3.60
2023-01-17T11:09:47.225Z,2.80
2023-01-17T11:12:20.118Z,3.40
2023-01-17T11:15:01.765Z,3.90
2023-01-17T11:17:29.588Z,3.00
2023-01-17T11:20:13.365Z,2.60
2023-01-17T11:22:45.538Z,4.10
2023-01-17T11:25:23.725Z,3.20
2023-01-17T11:28:04.437Z,4.00
2023-01-17T11:30:31.106Z,4.40
2023-01-17T11:33:05.487Z,4.10
2023-01-17T11:35:37.649Z,4.80
2023-01-17T11:38:20.945Z,4.30
2023-01-17T11:40:49.340Z,5.20
2023-01-17T11:43:20.848Z,4.60
2023-01-17T11:46:18.334Z,4.00
2023-01-17T11:48:56.446Z,4.30
2023-01-17T11:51:38.297Z,6.20
2023-01-17T11:54:29.511Z,6.20
2023-01-17T11:57:01.552Z,5.70
2023-01-17T11:59:35.267Z,4.20
2023-01-17T12:04:50.771Z,3.70
2023-01-17T12:07:32.056Z,3.70
2023-01-17T12:10:08.624Z,3.30
2023-01-17T12:13:03.251Z,3.60
2023-01-17T12:15:44.936Z,5.50
2023-01-17T12:18:23.976Z,4.60
2023-01-17T12:20:56.323Z,5.80
2023-01-17T12:23:35.363Z,6.20
2023-01-17T12:26:31.195Z,6.00
2023-01-17T12:29:30.089Z,3.90
2023-01-17T12:32:21.121Z,3.10
2023-01-17T12:35:05.360Z,3.10
2023-01-17T12:37:38.307Z,3.10
2023-01-17T12:40:36.262Z,4.80
2023-01-17T12:43:14.702Z,4.40
2023-01-17T12:45:46.737Z,5.70
2023-01-17T12:48:17.797Z,3.90
2023-01-17T12:50:53.381Z,4.80
2023-01-17T12:53:35.454Z,5.40
2023-01-17T12:56:24.017Z,3.90
2023-01-17T12:58:55.917Z,3.60
2023-01-17T13:01:31.096Z,4.00
2023-01-17T13:04:10.406Z,4.00
2023-01-17T13:07:00.181Z,3.40
2023-01-17T13:09:34.367Z,3.10
2023-01-17T13:12:05.465Z,3.50
2023-01-17T13:14:32.370Z,4.10
2023-01-17T13:17:08.387Z,4.10
2023-01-17T13:19:47.696Z,3.60
2023-01-17T13:22:16.869Z,3.80
2023-01-17T13:24:43.446Z,5.30
2023-01-17T13:27:21.903Z,10.20
2023-01-17T13:29:59.464Z,5.00
2023-01-17T13:32:49.507Z,6.40
2023-01-17T13:35:44.291Z,5.50
2023-01-17T13:38:29.269Z,3.00
2023-01-17T13:41:36.189Z,5.10
2023-01-17T13:44:21.010Z,4.70
2023-01-17T13:46:54.692Z,3.10
2023-01-17T13:52:03.678Z,3.40
2023-01-17T13:54:32.184Z,3.90
2023-01-17T13:57:32.246Z,2.90
2023-01-17T14:00:35.062Z,2.10
2023-01-17T14:03:01.871Z,3.00
2023-01-17T14:05:37.565Z,2.80
2023-01-17T14:08:12.308Z,3.50
2023-01-17T14:10:46.677Z,4.30
2023-01-17T14:13:35.008Z,5.50
2023-01-17T14:16:07.009Z,5.50
2023-01-17T14:18:41.184Z,4.90
2023-01-17T14:21:28.255Z,8.50
2023-01-17T14:23:59.887Z,4.40
2023-01-17T14:26:33.612Z,3.70
2023-01-17T14:31:53.526Z,4.50
2023-01-17T14:36:48.271Z,7.00
2023-01-17T14:39:21.871Z,6.90
2023-01-17T14:44:15.292Z,7.50
2023-01-17T14:46:47.826Z,6.40
2023-01-17T14:49:24.724Z,6.90
2023-01-17T14:51:59.395Z,7.00
2023-01-17T14:54:25.951Z,8.20
2023-01-17T14:57:13.114Z,9.00
2023-01-17T14:59:39.628Z,6.90
2023-01-17T15:02:15.690Z,5.70
2023-01-17T15:04:42.485Z,5.60
2023-01-17T15:07:15.534Z,5.70
2023-01-17T15:09:43.906Z,8.20
2023-01-17T15:12:13.789Z,8.80
2023-01-17T15:14:43.910Z,10.10
2023-01-17T15:17:18.317Z,13.40
2023-01-17T15:19:48.822Z,12.10
2023-01-17T15:22:18.102Z,11.30
2023-01-17T15:24:46.255Z,11.00
2023-01-17T15:27:15.599Z,11.90
2023-01-17T15:29:44.638Z,13.60
2023-01-17T15:32:21.930Z,12.60
2023-01-17T15:34:50.273Z,18.60
2023-01-17T15:37:26.839Z,15.70
2023-01-17T15:40:02.881Z,19.10
2023-01-17T15:42:32.716Z,18.50
2023-01-17T15:45:04.020Z,22.90
2023-01-17T15:47:37.972Z,26.70
2023-01-17T15:50:39.006Z,26.40
2023-01-17T15:53:12.586Z,23.30
2023-01-17T15:55:39.625Z,21.00
2023-01-17T15:58:24.497Z,27.90
2023-01-17T16:00:51.121Z,34.20
2023-01-17T16:03:22.715Z,30.90
2023-01-17T16:05:51.623Z,23.90
2023-01-17T16:08:27.463Z,38.20
2023-01-17T16:10:57.856Z,91.60
2023-01-17T16:13:24.434Z,60.60
2023-01-17T16:15:51.038Z,35.60
2023-01-17T16:18:23.304Z,79.40
2023-01-17T16:20:59.332Z,63.60
2023-01-17T16:23:27.506Z,113.30
2023-01-17T16:25:54.391Z,109.00
2023-01-17T16:28:20.957Z,74.40
2023-01-17T16:30:48.203Z,85.10
2023-01-17T16:33:15.146Z,78.10
2023-01-17T16:35:42.383Z,73.40
2023-01-17T16:38:19.055Z,80.10
2023-01-17T16:40:46.856Z,83.00
2023-01-17T16:43:15.119Z,93.20
2023-01-17T16:45:44.813Z,91.60
2023-01-17T16:48:12.293Z,84.00
2023-01-17T16:50:47.495Z,121.90
2023-01-17T16:53:14.659Z,130.40
2023-01-17T16:55:42.248Z,107.80
2023-01-17T16:58:09.050Z,104.90
2023-01-17T17:00:35.908Z,94.00
2023-01-17T17:03:02.549Z,87.30
2023-01-17T17:05:30.029Z,87.40
2023-01-17T17:07:57.115Z,88.30
2023-01-17T17:10:24.586Z,93.60
2023-01-17T17:12:51.452Z,94.40
2023-01-17T17:15:18.230Z,92.40
2023-01-17T17:17:44.828Z,89.50
2023-01-17T17:20:14.002Z,90.00
2023-01-17T17:22:43.306Z,83.60
2023-01-17T17:25:11.301Z,90.30
2023-01-17T17:27:38.197Z,107.70
2023-01-17T17:30:05.642Z,102.60
2023-01-17T17:32:32.260Z,142.70
2023-01-17T17:34:59.356Z,146.20
2023-01-17T17:37:28.346Z,137.80
2023-01-17T17:39:56.166Z,123.20
2023-01-17T17:42:22.839Z,115.30
2023-01-17T17:44:49.468Z,101.90
2023-01-17T17:47:16.061Z,104.60
2023-01-17T17:49:42.826Z,122.50
2023-01-17T17:52:10.091Z,113.20
2023-01-17T17:54:36.617Z,110.10
2023-01-17T17:57:03.321Z,110.60
2023-01-17T17:59:30.553Z,108.10
2023-01-17T18:01:59.028Z,106.80
2023-01-17T18:04:25.652Z,104.60
2023-01-17T18:06:56.202Z,107.40
2023-01-17T18:09:23.105Z,204.90
2023-01-17T18:11:49.722Z,202.00
2023-01-17T18:14:20.105Z,176.60
2023-01-17T18:16:47.200Z,123.20
2023-01-17T18:19:18.581Z,132.40
2023-01-17T18:21:45.630Z,130.20
2023-01-17T18:24:14.353Z,133.90
2023-01-17T18:26:43.546Z,150.00
2023-01-17T18:29:14.110Z,163.80
2023-01-17T18:31:42.524Z,180.30
2023-01-17T18:34:20.452Z,180.50
2023-01-17T18:36:47.375Z,179.80
2023-01-17T18:39:23.854Z,165.90
2023-01-17T18:41:50.787Z,152.30
2023-01-17T18:44:21.628Z,140.30
2023-01-17T18:46:50.121Z,107.50
2023-01-17T18:49:18.440Z,130.70
2023-01-17T18:51:49.800Z,119.10
2023-01-17T18:54:17.158Z,124.50
2023-01-17T18:56:43.965Z,132.70
2023-01-17T18:59:17.454Z,134.70
2023-01-17T19:01:44.165Z,105.10
2023-01-17T19:04:12.896Z,93.70
2023-01-17T19:06:41.860Z,85.30
2023-01-17T19:09:10.849Z,95.40
2023-01-17T19:11:37.503Z,97.00
2023-01-17T19:14:05.083Z,102.50
2023-01-17T19:16:35.301Z,91.70
2023-01-17T19:19:06.229Z,83.70
2023-01-17T19:21:33.283Z,82.90
2023-01-17T19:24:00.547Z,85.80
2023-01-17T19:26:27.801Z,88.20
2023-01-17T19:28:57.960Z,81.90
2023-01-17T19:31:26.982Z,66.10
2023-01-17T19:33:56.680Z,73.10
2023-01-17T19:36:42.031Z,82.20
2023-01-17T19:39:09.184Z,76.20
2023-01-17T19:41:40.398Z,69.50
2023-01-17T19:44:09.188Z,77.40
2023-01-17T19:46:36.439Z,74.60
2023-01-17T19:49:05.586Z,75.70
2023-01-17T19:51:32.475Z,76.70
2023-01-17T19:54:03.365Z,76.00
2023-01-17T19:56:29.940Z,81.00
2023-01-17T19:59:00.017Z,79.30
2023-01-17T20:01:29.545Z,82.60
2023-01-17T20:03:58.160Z,60.40
2023-01-17T20:06:30.961Z,59.00
2023-01-17T20:08:57.807Z,53.10
2023-01-17T20:11:25.895Z,51.90
2023-01-17T20:13:55.113Z,53.90
2023-01-17T20:16:23.318Z,50.40
2023-01-17T20:18:49.930Z,48.70
2023-01-17T20:21:19.323Z,57.90
2023-01-17T20:23:47.029Z,51.40
2023-01-17T20:26:16.218Z,54.00
2023-01-17T20:28:45.347Z,67.30
2023-01-17T20:31:14.724Z,68.70
2023-01-17T20:33:43.416Z,54.00
2023-01-17T20:36:14.768Z,56.70
2023-01-17T20:38:43.208Z,52.90
2023-01-17T20:41:10.343Z,49.60
2023-01-17T20:43:37.185Z,50.20
2023-01-17T20:46:05.163Z,45.60
2023-01-17T20:48:32.091Z,38.40
2023-01-17T20:51:05.049Z,47.10
2023-01-17T20:53:34.287Z,46.80
2023-01-17T20:56:01.084Z,51.70
2023-01-17T20:58:28.220Z,48.70
2023-01-17T21:00:55.391Z,52.00
2023-01-17T21:03:23.454Z,50.80
2023-01-17T21:05:50.993Z,47.90
2023-01-17T21:08:18.689Z,47.90
2023-01-17T21:10:47.725Z,53.80
2023-01-17T21:13:14.952Z,44.50
2023-01-17T21:15:43.313Z,41.30
2023-01-17T21:18:09.905Z,39.80
2023-01-17T21:20:36.462Z,40.60
2023-01-17T21:23:03.009Z,42.70
2023-01-17T21:25:29.628Z,45.10
2023-01-17T21:27:56.437Z,48.40
2023-01-17T21:30:23.139Z,46.60
2023-01-17T21:32:49.652Z,45.30
2023-01-17T21:35:16.178Z,35.90
2023-01-17T21:37:42.844Z,36.00
2023-01-17T21:40:10.121Z,42.30
2023-01-17T21:42:36.706Z,40.90
2023-01-17T21:45:03.478Z,48.00
2023-01-17T21:47:30.095Z,49.70
2023-01-17T21:49:56.570Z,53.30
2023-01-17T21:52:23.115Z,61.20
2023-01-17T21:55:08.380Z,52.00
2023-01-17T21:57:53.489Z,54.60
2023-01-17T22:00:20.117Z,53.10
2023-01-17T22:02:47.664Z,61.20
2023-01-17T22:05:16.017Z,58.50
2023-01-17T22:08:03.671Z,61.10
2023-01-17T22:10:30.483Z,60.70
2023-01-17T22:12:57.049Z,66.40
2023-01-17T22:15:23.788Z,74.80
2023-01-17T22:17:50.416Z,111.50
2023-01-17T22:20:17.428Z,93.30
2023-01-17T22:22:45.460Z,105.50
2023-01-17T22:25:13.028Z,110.70
2023-01-17T22:27:39.557Z,104.70
2023-01-17T22:30:12.126Z,98.60
2023-01-17T22:32:38.997Z,94.30
2023-01-17T22:35:06.852Z,94.00
2023-01-17T22:37:34.269Z,93.50
2023-01-17T22:40:04.083Z,92.70
2023-01-17T22:42:34.088Z,84.20
2023-01-17T22:45:00.715Z,84.00
2023-01-17T22:47:27.286Z,89.90
2023-01-17T22:49:53.833Z,82.90
2023-01-17T22:52:20.346Z,83.00
2023-01-17T22:54:46.902Z,84.90
2023-01-17T22:57:13.437Z,88.40
2023-01-17T22:59:39.967Z,86.60
2023-01-17T23:02:06.549Z,74.10
2023-01-17T23:04:33.094Z,73.80
2023-01-17T23:06:59.920Z,70.70
2023-01-17T23:09:26.444Z,80.10
2023-01-17T23:11:54.481Z,83.50
2023-01-17T23:14:21.005Z,86.80
2023-01-17T23:17:09.467Z,89.30
2023-01-17T23:19:38.280Z,93.30
2023-01-17T23:22:19.725Z,95.80
2023-01-17T23:24:55.556Z,95.70
2023-01-17T23:27:45.021Z,93.90
2023-01-17T23:30:11.630Z,94.80
2023-01-17T23:32:42.212Z,88.80
2023-01-17T23:35:08.887Z,89.70
2023-01-17T23:37:54.514Z,92.90
2023-01-17T23:40:21.448Z,69.70
2023-01-17T23:43:06.885Z,66.00
2023-01-17T23:45:35.183Z,48.80
2023-01-17T23:48:04.803Z,46.50
2023-01-17T23:50:32.332Z,42.10
2023-01-17T23:52:59.188Z,41.90
2023-01-17T23:55:25.902Z,43.40
2023-01-17T23:57:53.645Z,43.50
